sensor_id;sensor_type;location;lat;lon;timestamp;temperature;humidity
18291;DHT22;9271;48.590;8.866;2023-02-07T00:00:39;1.70;99.90
18291;DHT22;9271;48.590;8.866;2023-02-07T00:03:05;1.70;99.90
18291;DHT22;9271;48.590;8.866;2023-02-07T00:05:32;1.80;99.90
18291;DHT22;9271;48.590;8.866;2023-02-07T00:08:01;1.80;99.90
18291;DHT22;9271;48.590;8.866;2023-02-07T00:10:27;1.80;99.90
18291;DHT22;9271;48.590;8.866;2023-02-07T00:12:54;1.60;99.90
18291;DHT22;9271;48.590;8.866;2023-02-07T00:15:21;1.50;99.90
18291;DHT22;9271;48.590;8.866;2023-02-07T00:17:49;1.40;99.90
18291;DHT22;9271;48.590;8.866;2023-02-07T00:20:16;1.20;99.80
18291;DHT22;9271;48.590;8.866;2023-02-07T00:22:43;1.30;99.90
18291;DHT22;9271;48.590;8.866;2023-02-07T00:25:10;1.30;99.90
18291;DHT22;9271;48.590;8.866;2023-02-07T00:27:37;1.30;99.80
18291;DHT22;9271;48.590;8.866;2023-02-07T00:30:05;1.20;99.90
18291;DHT22;9271;48.590;8.866;2023-02-07T00:32:32;1.10;99.80
18291;DHT22;9271;48.590;8.866;2023-02-07T00:35:01;1.10;99.70
18291;DHT22;9271;48.590;8.866;2023-02-07T00:37:27;1.00;99.70
18291;DHT22;9271;48.590;8.866;2023-02-07T00:39:54;0.90;99.10
18291;DHT22;9271;48.590;8.866;2023-02-07T00:42:21;0.90;99.10
18291;DHT22;9271;48.590;8.866;2023-02-07T00:44:47;1.00;99.00
18291;DHT22;9271;48.590;8.866;2023-02-07T00:47:14;1.00;98.80
18291;DHT22;9271;48.590;8.866;2023-02-07T00:49:41;1.00;98.70
18291;DHT22;9271;48.590;8.866;2023-02-07T00:52:09;0.70;99.30
18291;DHT22;9271;48.590;8.866;2023-02-07T00:54:35;0.60;99.20
18291;DHT22;9271;48.590;8.866;2023-02-07T00:57:02;0.60;99.40
18291;DHT22;9271;48.590;8.866;2023-02-07T00:59:29;0.70;99.30
18291;DHT22;9271;48.590;8.866;2023-02-07T01:01:55;0.50;99.40
18291;DHT22;9271;48.590;8.866;2023-02-07T01:04:22;0.40;99.60
18291;DHT22;9271;48.590;8.866;2023-02-07T01:06:48;0.50;99.40
18291;DHT22;9271;48.590;8.866;2023-02-07T01:09:16;0.60;99.80
18291;DHT22;9271;48.590;8.866;2023-02-07T01:11:43;0.60;99.10
18291;DHT22;9271;48.590;8.866;2023-02-07T01:14:10;0.50;99.30
18291;DHT22;9271;48.590;8.866;2023-02-07T01:16:36;0.40;99.30
18291;DHT22;9271;48.590;8.866;2023-02-07T01:19:06;0.40;99.40
18291;DHT22;9271;48.590;8.866;2023-02-07T01:21:33;0.20;99.20
18291;DHT22;9271;48.590;8.866;2023-02-07T01:24:00;0.40;99.00
18291;DHT22;9271;48.590;8.866;2023-02-07T01:26:28;0.50;98.60
18291;DHT22;9271;48.590;8.866;2023-02-07T01:28:55;0.40;98.90
18291;DHT22;9271;48.590;8.866;2023-02-07T01:31:24;0.30;99.00
18291;DHT22;9271;48.590;8.866;2023-02-07T01:33:54;0.30;99.20
18291;DHT22;9271;48.590;8.866;2023-02-07T01:36:21;0.20;99.30
18291;DHT22;9271;48.590;8.866;2023-02-07T01:38:48;0.30;99.40
18291;DHT22;9271;48.590;8.866;2023-02-07T01:41:16;0.30;99.10
18291;DHT22;9271;48.590;8.866;2023-02-07T01:43:56;0.30;99.00
18291;DHT22;9271;48.590;8.866;2023-02-07T01:46:24;0.30;98.50
18291;DHT22;9271;48.590;8.866;2023-02-07T01:48:52;0.20;98.80
18291;DHT22;9271;48.590;8.866;2023-02-07T01:51:20;0.10;98.60
18291;DHT22;9271;48.590;8.866;2023-02-07T01:53:48;0.10;98.80
18291;DHT22;9271;48.590;8.866;2023-02-07T01:56:16;0.00;99.20
18291;DHT22;9271;48.590;8.866;2023-02-07T01:58:43;0.10;99.30
18291;DHT22;9271;48.590;8.866;2023-02-07T02:01:16;0.00;99.40
18291;DHT22;9271;48.590;8.866;2023-02-07T02:03:46;0.00;99.50
18291;DHT22;9271;48.590;8.866;2023-02-07T02:06:14;0.00;99.50
18291;DHT22;9271;48.590;8.866;2023-02-07T02:08:42;-0.10;99.70
18291;DHT22;9271;48.590;8.866;2023-02-07T02:11:27;-0.10;99.80
18291;DHT22;9271;48.590;8.866;2023-02-07T02:14:07;0.00;99.70
18291;DHT22;9271;48.590;8.866;2023-02-07T02:16:41;0.00;99.80
18291;DHT22;9271;48.590;8.866;2023-02-07T02:19:30;0.20;99.80
18291;DHT22;9271;48.590;8.866;2023-02-07T02:22:23;0.40;99.40
18291;DHT22;9271;48.590;8.866;2023-02-07T02:25:25;0.60;99.40
18291;DHT22;9271;48.590;8.866;2023-02-07T02:31:18;0.80;99.10
18291;DHT22;9271;48.590;8.866;2023-02-07T02:33:53;0.80;98.60
18291;DHT22;9271;48.590;8.866;2023-02-07T02:36:27;1.20;98.50
18291;DHT22;9271;48.590;8.866;2023-02-07T02:39:02;1.20;98.30
18291;DHT22;9271;48.590;8.866;2023-02-07T02:41:38;1.40;97.70
18291;DHT22;9271;48.590;8.866;2023-02-07T02:44:09;1.40;97.70
18291;DHT22;9271;48.590;8.866;2023-02-07T02:46:39;1.30;97.50
18291;DHT22;9271;48.590;8.866;2023-02-07T02:49:10;1.30;97.50
18291;DHT22;9271;48.590;8.866;2023-02-07T02:51:39;1.40;97.70
18291;DHT22;9271;48.590;8.866;2023-02-07T02:54:25;1.30;97.30
18291;DHT22;9271;48.590;8.866;2023-02-07T02:57:03;1.30;97.30
18291;DHT22;9271;48.590;8.866;2023-02-07T02:59:47;1.00;97.30
18291;DHT22;9271;48.590;8.866;2023-02-07T03:02:21;0.80;97.40
18291;DHT22;9271;48.590;8.866;2023-02-07T03:05:00;0.60;97.80
18291;DHT22;9271;48.590;8.866;2023-02-07T03:07:42;0.60;97.80
18291;DHT22;9271;48.590;8.866;2023-02-07T03:10:18;0.30;97.30
18291;DHT22;9271;48.590;8.866;2023-02-07T03:12:56;0.00;97.80
18291;DHT22;9271;48.590;8.866;2023-02-07T03:15:32;-0.10;98.20
18291;DHT22;9271;48.590;8.866;2023-02-07T03:18:04;0.00;97.90
18291;DHT22;9271;48.590;8.866;2023-02-07T03:20:38;-0.20;97.90
18291;DHT22;9271;48.590;8.866;2023-02-07T03:23:08;-0.20;98.00
18291;DHT22;9271;48.590;8.866;2023-02-07T03:25:37;-0.30;98.20
18291;DHT22;9271;48.590;8.866;2023-02-07T03:28:05;-0.30;98.10
18291;DHT22;9271;48.590;8.866;2023-02-07T03:30:35;-0.40;97.90
18291;DHT22;9271;48.590;8.866;2023-02-07T03:33:06;-0.50;98.10
18291;DHT22;9271;48.590;8.866;2023-02-07T03:35:40;-0.50;98.50
18291;DHT22;9271;48.590;8.866;2023-02-07T03:38:08;-0.30;98.00
18291;DHT22;9271;48.590;8.866;2023-02-07T03:40:38;-0.10;97.40
18291;DHT22;9271;48.590;8.866;2023-02-07T03:43:07;-0.10;97.30
18291;DHT22;9271;48.590;8.866;2023-02-07T03:45:35;-0.10;97.10
18291;DHT22;9271;48.590;8.866;2023-02-07T03:48:02;-0.20;97.40
18291;DHT22;9271;48.590;8.866;2023-02-07T03:50:29;-0.30;97.60
18291;DHT22;9271;48.590;8.866;2023-02-07T03:52:57;-0.30;97.60
18291;DHT22;9271;48.590;8.866;2023-02-07T03:55:23;-0.40;97.50
18291;DHT22;9271;48.590;8.866;2023-02-07T03:57:50;-0.40;97.60
18291;DHT22;9271;48.590;8.866;2023-02-07T04:00:17;-0.40;97.90
18291;DHT22;9271;48.590;8.866;2023-02-07T04:02:44;-0.30;97.60
18291;DHT22;9271;48.590;8.866;2023-02-07T04:05:11;-0.40;97.80
18291;DHT22;9271;48.590;8.866;2023-02-07T04:07:37;-0.40;98.00
18291;DHT22;9271;48.590;8.866;2023-02-07T04:10:06;-0.40;98.10
18291;DHT22;9271;48.590;8.866;2023-02-07T04:12:33;-0.40;98.00
18291;DHT22;9271;48.590;8.866;2023-02-07T04:15:00;-0.50;98.00
18291;DHT22;9271;48.590;8.866;2023-02-07T04:17:27;-0.60;98.40
18291;DHT22;9271;48.590;8.866;2023-02-07T04:19:53;-0.60;98.40
18291;DHT22;9271;48.590;8.866;2023-02-07T04:22:20;-0.60;98.50
18291;DHT22;9271;48.590;8.866;2023-02-07T04:24:48;-0.50;98.70
18291;DHT22;9271;48.590;8.866;2023-02-07T04:27:16;-0.50;98.20
18291;DHT22;9271;48.590;8.866;2023-02-07T04:29:42;-0.50;98.30
18291;DHT22;9271;48.590;8.866;2023-02-07T04:32:09;-0.60;98.70
18291;DHT22;9271;48.590;8.866;2023-02-07T04:34:36;-0.80;98.80
18291;DHT22;9271;48.590;8.866;2023-02-07T04:37:02;-0.80;98.80
18291;DHT22;9271;48.590;8.866;2023-02-07T04:39:29;-0.80;98.80
18291;DHT22;9271;48.590;8.866;2023-02-07T04:41:56;-0.80;98.80
18291;DHT22;9271;48.590;8.866;2023-02-07T04:44:24;-1.00;99.10
18291;DHT22;9271;48.590;8.866;2023-02-07T04:46:51;-1.10;99.20
18291;DHT22;9271;48.590;8.866;2023-02-07T04:49:17;-1.00;99.50
18291;DHT22;9271;48.590;8.866;2023-02-07T04:51:44;-1.00;99.70
18291;DHT22;9271;48.590;8.866;2023-02-07T04:54:11;-1.10;99.30
18291;DHT22;9271;48.590;8.866;2023-02-07T04:56:37;-1.20;99.50
18291;DHT22;9271;48.590;8.866;2023-02-07T04:59:04;-1.10;99.50
18291;DHT22;9271;48.590;8.866;2023-02-07T05:01:32;-1.10;99.40
18291;DHT22;9271;48.590;8.866;2023-02-07T05:03:58;-1.20;99.40
18291;DHT22;9271;48.590;8.866;2023-02-07T05:06:25;-1.20;99.50
18291;DHT22;9271;48.590;8.866;2023-02-07T05:08:52;-1.30;99.50
18291;DHT22;9271;48.590;8.866;2023-02-07T05:11:18;-1.40;99.70
18291;DHT22;9271;48.590;8.866;2023-02-07T05:13:45;-1.30;99.80
18291;DHT22;9271;48.590;8.866;2023-02-07T05:16:12;-1.20;99.60
18291;DHT22;9271;48.590;8.866;2023-02-07T05:18:40;-1.30;99.70
18291;DHT22;9271;48.590;8.866;2023-02-07T05:21:06;-1.30;99.80
18291;DHT22;9271;48.590;8.866;2023-02-07T05:23:33;-1.30;99.60
18291;DHT22;9271;48.590;8.866;2023-02-07T05:26:00;-1.30;99.80
18291;DHT22;9271;48.590;8.866;2023-02-07T05:28:26;-1.30;99.70
18291;DHT22;9271;48.590;8.866;2023-02-07T05:30:54;-1.20;99.60
18291;DHT22;9271;48.590;8.866;2023-02-07T05:33:20;-1.30;99.40
18291;DHT22;9271;48.590;8.866;2023-02-07T05:35:47;-1.30;99.60
18291;DHT22;9271;48.590;8.866;2023-02-07T05:38:16;-1.40;99.50
18291;DHT22;9271;48.590;8.866;2023-02-07T05:40:43;-1.40;99.50
18291;DHT22;9271;48.590;8.866;2023-02-07T05:43:11;-1.40;99.60
18291;DHT22;9271;48.590;8.866;2023-02-07T05:45:38;-1.40;99.30
18291;DHT22;9271;48.590;8.866;2023-02-07T05:48:05;-1.50;99.80
18291;DHT22;9271;48.590;8.866;2023-02-07T05:50:33;-1.40;99.90
18291;DHT22;9271;48.590;8.866;2023-02-07T05:53:01;-1.40;99.90
18291;DHT22;9271;48.590;8.866;2023-02-07T05:55:28;-1.40;99.80
18291;DHT22;9271;48.590;8.866;2023-02-07T05:57:55;-1.40;99.70
18291;DHT22;9271;48.590;8.866;2023-02-07T06:00:21;-1.50;99.80
18291;DHT22;9271;48.590;8.866;2023-02-07T06:02:48;-1.60;99.90
18291;DHT22;9271;48.590;8.866;2023-02-07T06:05:16;-1.80;99.90
18291;DHT22;9271;48.590;8.866;2023-02-07T06:07:44;-1.70;99.90
18291;DHT22;9271;48.590;8.866;2023-02-07T06:10:13;-1.70;99.90
18291;DHT22;9271;48.590;8.866;2023-02-07T06:12:39;-1.60;99.90
18291;DHT22;9271;48.590;8.866;2023-02-07T06:15:07;-1.60;99.90
18291;DHT22;9271;48.590;8.866;2023-02-07T06:17:33;-1.60;99.90
18291;DHT22;9271;48.590;8.866;2023-02-07T06:20:00;-1.60;99.90
18291;DHT22;9271;48.590;8.866;2023-02-07T06:22:27;-1.50;99.90
18291;DHT22;9271;48.590;8.866;2023-02-07T06:24:54;-1.40;99.90
18291;DHT22;9271;48.590;8.866;2023-02-07T06:27:22;-1.40;99.90
18291;DHT22;9271;48.590;8.866;2023-02-07T06:29:48;-1.50;99.90
18291;DHT22;9271;48.590;8.866;2023-02-07T06:32:15;-1.50;99.90
18291;DHT22;9271;48.590;8.866;2023-02-07T06:34:41;-1.50;99.90
18291;DHT22;9271;48.590;8.866;2023-02-07T06:37:08;-1.60;99.90
18291;DHT22;9271;48.590;8.866;2023-02-07T06:39:35;-1.60;99.90
18291;DHT22;9271;48.590;8.866;2023-02-07T06:42:01;-1.50;99.90
18291;DHT22;9271;48.590;8.866;2023-02-07T06:44:30;-1.50;99.90
18291;DHT22;9271;48.590;8.866;2023-02-07T06:46:57;-1.50;99.80
18291;DHT22;9271;48.590;8.866;2023-02-07T06:49:23;-1.50;99.80
18291;DHT22;9271;48.590;8.866;2023-02-07T06:51:50;-1.40;99.70
18291;DHT22;9271;48.590;8.866;2023-02-07T06:54:16;-1.50;99.70
18291;DHT22;9271;48.590;8.866;2023-02-07T06:56:43;-1.50;99.90
18291;DHT22;9271;48.590;8.866;2023-02-07T06:59:10;-1.50;99.90
18291;DHT22;9271;48.590;8.866;2023-02-07T07:01:37;-1.50;99.90
18291;DHT22;9271;48.590;8.866;2023-02-07T07:04:04;-1.50;99.90
18291;DHT22;9271;48.590;8.866;2023-02-07T07:06:31;-1.50;99.90
18291;DHT22;9271;48.590;8.866;2023-02-07T07:08:58;-1.50;99.90
18291;DHT22;9271;48.590;8.866;2023-02-07T07:11:25;-1.40;99.90
18291;DHT22;9271;48.590;8.866;2023-02-07T07:13:51;-1.40;99.90
18291;DHT22;9271;48.590;8.866;2023-02-07T07:16:18;-1.40;99.90
18291;DHT22;9271;48.590;8.866;2023-02-07T07:18:47;-1.40;99.90
18291;DHT22;9271;48.590;8.866;2023-02-07T07:21:14;-1.30;99.70
18291;DHT22;9271;48.590;8.866;2023-02-07T07:23:40;-1.40;99.90
18291;DHT22;9271;48.590;8.866;2023-02-07T07:26:07;-1.30;99.90
18291;DHT22;9271;48.590;8.866;2023-02-07T07:28:34;-1.30;99.90
18291;DHT22;9271;48.590;8.866;2023-02-07T07:31:02;-1.10;99.90
18291;DHT22;9271;48.590;8.866;2023-02-07T07:33:29;-0.90;99.80
18291;DHT22;9271;48.590;8.866;2023-02-07T07:35:57;-0.90;99.60
18291;DHT22;9271;48.590;8.866;2023-02-07T07:38:25;-0.70;99.50
18291;DHT22;9271;48.590;8.866;2023-02-07T07:40:51;-0.60;99.40
18291;DHT22;9271;48.590;8.866;2023-02-07T07:43:18;-0.60;99.10
18291;DHT22;9271;48.590;8.866;2023-02-07T07:45:48;-0.60;99.00
18291;DHT22;9271;48.590;8.866;2023-02-07T07:48:16;-0.60;99.10
18291;DHT22;9271;48.590;8.866;2023-02-07T07:50:43;-0.60;98.90
18291;DHT22;9271;48.590;8.866;2023-02-07T07:53:11;-0.60;98.70
18291;DHT22;9271;48.590;8.866;2023-02-07T07:55:38;-0.40;98.80
18291;DHT22;9271;48.590;8.866;2023-02-07T07:58:04;-0.30;98.50
18291;DHT22;9271;48.590;8.866;2023-02-07T08:00:31;-0.20;98.60
18291;DHT22;9271;48.590;8.866;2023-02-07T08:02:58;0.00;98.50
18291;DHT22;9271;48.590;8.866;2023-02-07T08:05:24;0.10;98.30
18291;DHT22;9271;48.590;8.866;2023-02-07T08:07:51;0.30;97.90
18291;DHT22;9271;48.590;8.866;2023-02-07T08:10:19;0.40;97.50
18291;DHT22;9271;48.590;8.866;2023-02-07T08:12:46;0.60;97.30
18291;DHT22;9271;48.590;8.866;2023-02-07T08:15:13;0.70;97.20
18291;DHT22;9271;48.590;8.866;2023-02-07T08:17:40;0.80;96.90
18291;DHT22;9271;48.590;8.866;2023-02-07T08:20:07;0.90;96.90
18291;DHT22;9271;48.590;8.866;2023-02-07T08:22:36;1.00;97.10
18291;DHT22;9271;48.590;8.866;2023-02-07T08:25:03;1.30;96.50
18291;DHT22;9271;48.590;8.866;2023-02-07T08:27:31;1.90;96.90
18291;DHT22;9271;48.590;8.866;2023-02-07T08:29:57;4.00;95.80
18291;DHT22;9271;48.590;8.866;2023-02-07T08:32:24;7.10;90.90
18291;DHT22;9271;48.590;8.866;2023-02-07T08:34:53;10.00;79.50
18291;DHT22;9271;48.590;8.866;2023-02-07T08:37:19;12.50;65.90
18291;DHT22;9271;48.590;8.866;2023-02-07T08:39:47;14.40;57.70
18291;DHT22;9271;48.590;8.866;2023-02-07T08:42:17;16.30;48.20
18291;DHT22;9271;48.590;8.866;2023-02-07T08:44:45;17.20;45.20
18291;DHT22;9271;48.590;8.866;2023-02-07T08:47:12;17.90;41.20
18291;DHT22;9271;48.590;8.866;2023-02-07T08:49:38;17.80;40.20
18291;DHT22;9271;48.590;8.866;2023-02-07T08:52:05;17.80;39.70
18291;DHT22;9271;48.590;8.866;2023-02-07T08:54:33;18.20;38.10
18291;DHT22;9271;48.590;8.866;2023-02-07T08:57:00;18.40;36.10
18291;DHT22;9271;48.590;8.866;2023-02-07T08:59:26;18.00;38.00
18291;DHT22;9271;48.590;8.866;2023-02-07T09:01:54;18.50;35.20
18291;DHT22;9271;48.590;8.866;2023-02-07T09:04:21;19.00;34.30
18291;DHT22;9271;48.590;8.866;2023-02-07T09:06:47;19.20;33.80
18291;DHT22;9271;48.590;8.866;2023-02-07T09:09:14;19.10;33.30
18291;DHT22;9271;48.590;8.866;2023-02-07T09:11:41;18.50;33.80
18291;DHT22;9271;48.590;8.866;2023-02-07T09:14:08;17.90;34.20
18291;DHT22;9271;48.590;8.866;2023-02-07T09:16:35;18.10;34.70
18291;DHT22;9271;48.590;8.866;2023-02-07T09:19:03;17.70;34.70
18291;DHT22;9271;48.590;8.866;2023-02-07T09:21:30;17.50;34.90
18291;DHT22;9271;48.590;8.866;2023-02-07T09:23:57;17.90;35.30
18291;DHT22;9271;48.590;8.866;2023-02-07T09:26:24;18.40;34.00
18291;DHT22;9271;48.590;8.866;2023-02-07T09:28:51;18.70;33.10
18291;DHT22;9271;48.590;8.866;2023-02-07T09:31:18;20.00;32.30
18291;DHT22;9271;48.590;8.866;2023-02-07T09:33:46;19.60;31.70
18291;DHT22;9271;48.590;8.866;2023-02-07T09:36:22;19.50;31.00
18291;DHT22;9271;48.590;8.866;2023-02-07T09:38:51;19.50;31.70
18291;DHT22;9271;48.590;8.866;2023-02-07T09:41:25;20.10;30.70
18291;DHT22;9271;48.590;8.866;2023-02-07T09:44:03;20.70;31.20
18291;DHT22;9271;48.590;8.866;2023-02-07T09:46:34;21.00;30.00
18291;DHT22;9271;48.590;8.866;2023-02-07T09:49:05;21.50;29.60
18291;DHT22;9271;48.590;8.866;2023-02-07T09:51:36;21.70;28.90
18291;DHT22;9271;48.590;8.866;2023-02-07T09:54:06;21.80;29.00
18291;DHT22;9271;48.590;8.866;2023-02-07T09:56:37;22.00;28.30
18291;DHT22;9271;48.590;8.866;2023-02-07T09:59:14;22.20;29.20
18291;DHT22;9271;48.590;8.866;2023-02-07T10:01:46;22.40;28.30
18291;DHT22;9271;48.590;8.866;2023-02-07T10:04:29;22.70;27.80
18291;DHT22;9271;48.590;8.866;2023-02-07T10:07:03;22.90;27.70
18291;DHT22;9271;48.590;8.866;2023-02-07T10:09:38;23.40;28.40
18291;DHT22;9271;48.590;8.866;2023-02-07T10:12:23;23.90;27.00
18291;DHT22;9271;48.590;8.866;2023-02-07T10:15:08;23.70;26.80
18291;DHT22;9271;48.590;8.866;2023-02-07T10:17:48;24.40;26.30
18291;DHT22;9271;48.590;8.866;2023-02-07T10:20:29;24.10;26.50
18291;DHT22;9271;48.590;8.866;2023-02-07T10:23:14;24.40;25.50
18291;DHT22;9271;48.590;8.866;2023-02-07T10:25:55;24.10;25.50
18291;DHT22;9271;48.590;8.866;2023-02-07T10:28:51;23.50;26.10
18291;DHT22;9271;48.590;8.866;2023-02-07T10:31:24;23.50;26.30
18291;DHT22;9271;48.590;8.866;2023-02-07T10:33:54;24.10;26.20
18291;DHT22;9271;48.590;8.866;2023-02-07T10:36:23;23.60;25.50
18291;DHT22;9271;48.590;8.866;2023-02-07T10:38:54;23.10;25.80
18291;DHT22;9271;48.590;8.866;2023-02-07T10:41:27;22.90;25.90
18291;DHT22;9271;48.590;8.866;2023-02-07T10:43:56;22.90;25.60
18291;DHT22;9271;48.590;8.866;2023-02-07T10:46:23;23.10;25.40
18291;DHT22;9271;48.590;8.866;2023-02-07T10:48:50;23.90;25.00
18291;DHT22;9271;48.590;8.866;2023-02-07T10:51:24;24.00;25.00
18291;DHT22;9271;48.590;8.866;2023-02-07T10:54:06;24.50;24.00
18291;DHT22;9271;48.590;8.866;2023-02-07T10:56:40;24.10;24.70
18291;DHT22;9271;48.590;8.866;2023-02-07T10:59:34;23.60;24.60
18291;DHT22;9271;48.590;8.866;2023-02-07T11:02:30;24.40;24.70
18291;DHT22;9271;48.590;8.866;2023-02-07T11:04:48;23.70;24.20
18291;DHT22;9271;48.590;8.866;2023-02-07T11:07:15;23.50;23.40
18291;DHT22;9271;48.590;8.866;2023-02-07T11:09:43;24.10;23.70
18291;DHT22;9271;48.590;8.866;2023-02-07T11:12:13;25.20;23.10
18291;DHT22;9271;48.590;8.866;2023-02-07T11:14:58;24.70;23.70
18291;DHT22;9271;48.590;8.866;2023-02-07T11:17:26;24.80;22.80
18291;DHT22;9271;48.590;8.866;2023-02-07T11:19:54;24.80;22.90
18291;DHT22;9271;48.590;8.866;2023-02-07T11:22:22;24.80;23.30
18291;DHT22;9271;48.590;8.866;2023-02-07T11:24:52;25.20;22.70
18291;DHT22;9271;48.590;8.866;2023-02-07T11:27:25;25.90;22.20
18291;DHT22;9271;48.590;8.866;2023-02-07T11:29:54;25.80;22.10
18291;DHT22;9271;48.590;8.866;2023-02-07T11:32:23;26.30;22.00
18291;DHT22;9271;48.590;8.866;2023-02-07T11:34:51;26.70;21.70
18291;DHT22;9271;48.590;8.866;2023-02-07T11:37:25;25.90;21.90
18291;DHT22;9271;48.590;8.866;2023-02-07T11:39:55;25.10;21.90
18291;DHT22;9271;48.590;8.866;2023-02-07T11:42:25;24.60;22.80
18291;DHT22;9271;48.590;8.866;2023-02-07T11:44:55;25.10;22.70
18291;DHT22;9271;48.590;8.866;2023-02-07T11:47:24;25.40;22.10
18291;DHT22;9271;48.590;8.866;2023-02-07T11:49:56;25.20;22.40
18291;DHT22;9271;48.590;8.866;2023-02-07T11:52:24;25.10;21.80
18291;DHT22;9271;48.590;8.866;2023-02-07T11:54:55;25.40;22.00
18291;DHT22;9271;48.590;8.866;2023-02-07T11:57:24;25.50;22.70
18291;DHT22;9271;48.590;8.866;2023-02-07T12:00:02;25.20;22.40
18291;DHT22;9271;48.590;8.866;2023-02-07T12:02:31;24.90;22.30
18291;DHT22;9271;48.590;8.866;2023-02-07T12:05:13;24.90;22.90
18291;DHT22;9271;48.590;8.866;2023-02-07T12:07:45;25.00;22.20
18291;DHT22;9271;48.590;8.866;2023-02-07T12:10:19;24.80;22.00
18291;DHT22;9271;48.590;8.866;2023-02-07T12:12:49;25.80;20.80
18291;DHT22;9271;48.590;8.866;2023-02-07T12:15:20;26.00;20.70
18291;DHT22;9271;48.590;8.866;2023-02-07T12:17:55;25.60;20.80
18291;DHT22;9271;48.590;8.866;2023-02-07T12:20:25;24.40;22.00
18291;DHT22;9271;48.590;8.866;2023-02-07T12:22:57;24.80;21.70
18291;DHT22;9271;48.590;8.866;2023-02-07T12:25:31;25.30;21.90
18291;DHT22;9271;48.590;8.866;2023-02-07T12:28:09;25.70;21.00
18291;DHT22;9271;48.590;8.866;2023-02-07T12:30:41;25.80;20.30
18291;DHT22;9271;48.590;8.866;2023-02-07T12:33:14;25.10;21.00
18291;DHT22;9271;48.590;8.866;2023-02-07T12:35:57;25.40;20.20
18291;DHT22;9271;48.590;8.866;2023-02-07T12:38:29;25.90;20.30
18291;DHT22;9271;48.590;8.866;2023-02-07T12:41:04;25.90;20.10
18291;DHT22;9271;48.590;8.866;2023-02-07T12:43:43;25.10;20.40
18291;DHT22;9271;48.590;8.866;2023-02-07T12:46:20;24.90;21.70
18291;DHT22;9271;48.590;8.866;2023-02-07T12:49:07;24.70;21.20
18291;DHT22;9271;48.590;8.866;2023-02-07T12:51:45;25.30;21.00
18291;DHT22;9271;48.590;8.866;2023-02-07T12:54:27;25.50;20.20
18291;DHT22;9271;48.590;8.866;2023-02-07T12:57:01;25.20;21.00
18291;DHT22;9271;48.590;8.866;2023-02-07T12:59:37;25.10;21.20
18291;DHT22;9271;48.590;8.866;2023-02-07T13:02:22;24.70;20.80
18291;DHT22;9271;48.590;8.866;2023-02-07T13:05:14;24.80;20.90
18291;DHT22;9271;48.590;8.866;2023-02-07T13:07:53;25.00;20.70
18291;DHT22;9271;48.590;8.866;2023-02-07T13:10:27;25.90;20.00
18291;DHT22;9271;48.590;8.866;2023-02-07T13:13:05;26.00;19.80
18291;DHT22;9271;48.590;8.866;2023-02-07T13:15:40;26.00;20.00
18291;DHT22;9271;48.590;8.866;2023-02-07T13:18:14;25.30;19.60
18291;DHT22;9271;48.590;8.866;2023-02-07T13:20:53;27.00;18.90
18291;DHT22;9271;48.590;8.866;2023-02-07T13:23:24;27.10;19.50
18291;DHT22;9271;48.590;8.866;2023-02-07T13:25:54;26.10;20.10
18291;DHT22;9271;48.590;8.866;2023-02-07T13:28:34;26.20;19.90
18291;DHT22;9271;48.590;8.866;2023-02-07T13:31:03;27.10;19.00
18291;DHT22;9271;48.590;8.866;2023-02-07T13:33:33;26.80;18.80
18291;DHT22;9271;48.590;8.866;2023-02-07T13:36:05;26.00;19.10
18291;DHT22;9271;48.590;8.866;2023-02-07T13:38:41;25.80;20.10
18291;DHT22;9271;48.590;8.866;2023-02-07T13:41:16;25.10;19.70
18291;DHT22;9271;48.590;8.866;2023-02-07T13:43:55;24.90;20.30
18291;DHT22;9271;48.590;8.866;2023-02-07T13:46:40;24.40;20.30
18291;DHT22;9271;48.590;8.866;2023-02-07T13:49:18;24.10;19.80
18291;DHT22;9271;48.590;8.866;2023-02-07T13:51:53;24.10;20.40
18291;DHT22;9271;48.590;8.866;2023-02-07T13:54:29;24.40;20.60
18291;DHT22;9271;48.590;8.866;2023-02-07T13:56:58;24.60;20.90
18291;DHT22;9271;48.590;8.866;2023-02-07T14:00:05;24.80;20.70
18291;DHT22;9271;48.590;8.866;2023-02-07T14:02:39;24.80;19.80
18291;DHT22;9271;48.590;8.866;2023-02-07T14:05:09;24.80;20.10
18291;DHT22;9271;48.590;8.866;2023-02-07T14:07:37;23.80;20.90
18291;DHT22;9271;48.590;8.866;2023-02-07T14:10:05;22.30;20.90
18291;DHT22;9271;48.590;8.866;2023-02-07T14:12:35;21.80;21.40
18291;DHT22;9271;48.590;8.866;2023-02-07T14:15:52;21.80;21.60
18291;DHT22;9271;48.590;8.866;2023-02-07T14:18:48;21.50;21.60
18291;DHT22;9271;48.590;8.866;2023-02-07T14:21:30;21.50;21.20
18291;DHT22;9271;48.590;8.866;2023-02-07T14:24:03;21.10;22.10
18291;DHT22;9271;48.590;8.866;2023-02-07T14:26:57;20.70;22.40
18291;DHT22;9271;48.590;8.866;2023-02-07T14:33:07;19.80;22.20
18291;DHT22;9271;48.590;8.866;2023-02-07T14:35:36;20.80;22.40
18291;DHT22;9271;48.590;8.866;2023-02-07T14:38:20;20.60;21.60
18291;DHT22;9271;48.590;8.866;2023-02-07T14:40:53;20.90;21.10
18291;DHT22;9271;48.590;8.866;2023-02-07T14:43:33;21.20;21.50
18291;DHT22;9271;48.590;8.866;2023-02-07T14:46:08;20.30;21.10
18291;DHT22;9271;48.590;8.866;2023-02-07T14:48:45;19.90;22.50
18291;DHT22;9271;48.590;8.866;2023-02-07T14:51:16;19.40;22.90
18291;DHT22;9271;48.590;8.866;2023-02-07T14:53:45;18.90;22.90
18291;DHT22;9271;48.590;8.866;2023-02-07T14:56:26;19.20;23.20
18291;DHT22;9271;48.590;8.866;2023-02-07T14:58:55;18.80;22.60
18291;DHT22;9271;48.590;8.866;2023-02-07T15:01:23;19.80;22.70
18291;DHT22;9271;48.590;8.866;2023-02-07T15:03:59;20.00;22.90
18291;DHT22;9271;48.590;8.866;2023-02-07T15:06:27;20.60;22.10
18291;DHT22;9271;48.590;8.866;2023-02-07T15:08:57;20.60;21.40
18291;DHT22;9271;48.590;8.866;2023-02-07T15:11:25;20.10;22.00
18291;DHT22;9271;48.590;8.866;2023-02-07T15:13:54;20.00;21.90
18291;DHT22;9271;48.590;8.866;2023-02-07T15:16:24;19.60;22.00
18291;DHT22;9271;48.590;8.866;2023-02-07T15:18:55;18.10;22.10
18291;DHT22;9271;48.590;8.866;2023-02-07T15:21:30;16.50;24.00
18291;DHT22;9271;48.590;8.866;2023-02-07T15:24:02;17.00;24.00
18291;DHT22;9271;48.590;8.866;2023-02-07T15:26:30;17.50;23.60
18291;DHT22;9271;48.590;8.866;2023-02-07T15:28:59;16.70;23.30
18291;DHT22;9271;48.590;8.866;2023-02-07T15:31:26;15.80;24.00
18291;DHT22;9271;48.590;8.866;2023-02-07T15:33:55;15.00;25.00
18291;DHT22;9271;48.590;8.866;2023-02-07T15:36:30;14.40;24.80
18291;DHT22;9271;48.590;8.866;2023-02-07T15:38:58;14.00;25.20
18291;DHT22;9271;48.590;8.866;2023-02-07T15:41:26;13.60;26.40
18291;DHT22;9271;48.590;8.866;2023-02-07T15:43:56;13.80;26.20
18291;DHT22;9271;48.590;8.866;2023-02-07T15:46:23;13.00;26.60
18291;DHT22;9271;48.590;8.866;2023-02-07T15:48:52;12.60;27.10
18291;DHT22;9271;48.590;8.866;2023-02-07T15:51:21;12.40;26.90
18291;DHT22;9271;48.590;8.866;2023-02-07T15:53:54;11.20;27.90
18291;DHT22;9271;48.590;8.866;2023-02-07T15:56:22;10.30;28.60
18291;DHT22;9271;48.590;8.866;2023-02-07T15:58:49;9.20;30.20
18291;DHT22;9271;48.590;8.866;2023-02-07T16:01:22;8.60;32.00
18291;DHT22;9271;48.590;8.866;2023-02-07T16:03:48;8.30;33.50
18291;DHT22;9271;48.590;8.866;2023-02-07T16:06:18;7.90;33.90
18291;DHT22;9271;48.590;8.866;2023-02-07T16:08:45;7.30;35.00
18291;DHT22;9271;48.590;8.866;2023-02-07T16:11:33;6.90;35.80
18291;DHT22;9271;48.590;8.866;2023-02-07T16:14:02;6.80;36.50
18291;DHT22;9271;48.590;8.866;2023-02-07T16:16:34;6.50;37.50
18291;DHT22;9271;48.590;8.866;2023-02-07T16:19:06;6.20;38.00